createdAt,value
2016-10-28T12:31:56.843Z,495
2016-10-28T12:32:55.577Z,475
2016-10-28T12:33:55.508Z,480
2016-10-28T12:34:55.432Z,480
2016-10-28T12:35:55.375Z,490
2016-10-28T12:36:55.422Z,405
2016-10-28T12:37:56.365Z,305
2016-10-28T12:38:55.359Z,260
2016-10-28T12:39:56.105Z,260
2016-10-28T12:40:56.855Z,275
2016-10-28T12:41:55.533Z,265
2016-10-28T12:42:56.316Z,245
2016-10-28T12:43:55.488Z,260
2016-10-28T12:44:55.306Z,245
2016-10-28T12:45:56.699Z,225
2016-10-28T12:46:56.371Z,200
2016-10-28T12:47:56.259Z,210
2016-10-28T12:48:56.434Z,215
2016-10-28T12:49:57.022Z,280
2016-10-28T12:50:56.111Z,300
2016-10-28T12:51:55.837Z,265
2016-10-28T12:52:56.812Z,250
2016-10-28T12:53:56.401Z,275
2016-10-28T12:54:56.164Z,260
2016-10-28T12:55:57.111Z,245
2016-10-28T12:56:56.094Z,255
2016-10-28T12:57:56.096Z,220
2016-10-28T12:58:55.893Z,195
2016-10-28T12:59:56.342Z,190
2016-10-28T13:00:57.395Z,185
2016-10-28T13:01:57.304Z,195
2016-10-28T13:02:57.101Z,185
2016-10-28T13:03:57.334Z,180
2016-10-28T13:04:56.618Z,195
2016-10-28T13:05:56.260Z,205
2016-10-28T13:06:56.707Z,190
2016-10-28T13:07:56.525Z,220
2016-10-28T13:08:56.855Z,230
2016-10-28T13:09:56.808Z,230
2016-10-28T13:10:55.923Z,225
2016-10-28T13:11:55.831Z,230
2016-10-28T13:12:56.626Z,225
2016-10-28T13:13:56.190Z,245
2016-10-28T13:14:56.866Z,250
2016-10-28T13:15:56.713Z,265
2016-10-28T13:16:55.736Z,235
2016-10-28T13:17:56.637Z,255
2016-10-28T13:18:57.041Z,230
2016-10-28T13:19:57.678Z,240
2016-10-28T13:20:57.583Z,250
2016-10-28T13:21:56.661Z,230
2016-10-28T13:22:56.667Z,215
2016-10-28T13:23:57.925Z,225
2016-10-28T13:24:56.106Z,210
2016-10-28T13:25:57.022Z,175
2016-10-28T13:26:56.886Z,160
2016-10-28T13:27:57.521Z,170
2016-10-28T13:28:57.042Z,185
2016-10-28T13:29:58.021Z,175
2016-10-28T13:30:57.045Z,170
2016-10-28T13:31:57.866Z,180
2016-10-28T13:32:57.372Z,200
2016-10-28T13:33:56.885Z,220
2016-10-28T13:34:57.574Z,245
2016-10-28T13:35:57.444Z,250
2016-10-28T13:36:56.988Z,290
2016-10-28T13:37:56.521Z,285
2016-10-28T13:38:57.137Z,200
2016-10-28T13:39:56.991Z,195
2016-10-28T13:40:56.918Z,220
2016-10-28T13:41:57.686Z,200
2016-10-28T13:42:57.719Z,175
2016-10-28T13:43:56.973Z,185
2016-10-28T13:44:56.682Z,175
2016-10-28T13:45:57.257Z,180
2016-10-28T13:46:57.136Z,225
2016-10-28T13:47:56.569Z,230
2016-10-28T13:48:57.794Z,210
2016-10-28T13:49:57.305Z,195
2016-10-28T13:50:57.746Z,185
2016-10-28T13:51:57.322Z,170
2016-10-28T13:52:57.082Z,175
2016-10-28T13:53:57.105Z,155
2016-10-28T13:54:57.385Z,140
2016-10-28T13:55:57.572Z,130
2016-10-28T13:56:56.827Z,125
2016-10-28T13:57:57.665Z,120
2016-10-28T13:58:58.349Z,120
2016-10-28T13:59:57.773Z,135
2016-10-28T14:00:58.322Z,160
2016-10-28T14:01:58.452Z,195
2016-10-28T14:02:57.631Z,205
2016-10-28T14:03:57.241Z,180
2016-10-28T14:04:58.709Z,175
2016-10-28T14:05:57.203Z,180
2016-10-28T14:06:57.934Z,170
2016-10-28T14:07:57.984Z,160
2016-10-28T14:08:57.195Z,170
2016-10-28T14:09:58.336Z,180
2016-10-28T14:10:57.739Z,155
2016-10-28T14:11:59.183Z,175
2016-10-28T14:12:57.921Z,170
2016-10-28T14:13:57.383Z,155
2016-10-28T14:14:57.534Z,120
2016-10-28T14:15:57.130Z,105
2016-10-28T14:16:58.276Z,100
2016-10-28T14:17:57.517Z,90
2016-10-28T14:18:58.079Z,90
2016-10-28T14:19:57.523Z,85
2016-10-28T14:20:58.491Z,85
2016-10-28T14:21:57.197Z,100
2016-10-28T14:22:57.051Z,105
2016-10-28T14:23:57.132Z,105
2016-10-28T14:24:58.342Z,110
2016-10-28T14:25:57.964Z,90
2016-10-28T14:26:58.096Z,80
2016-10-28T14:27:57.999Z,70
2016-10-28T14:28:58.609Z,70
2016-10-28T14:29:58.053Z,70
2016-10-28T14:30:57.371Z,80
2016-10-28T14:31:57.827Z,85
2016-10-28T14:32:57.351Z,80
2016-10-28T14:33:57.973Z,75
2016-10-28T14:34:58.094Z,80
2016-10-28T14:35:58.108Z,85
2016-10-28T14:36:57.832Z,90
2016-10-28T14:37:58.651Z,110
2016-10-28T14:38:58.692Z,115
2016-10-28T14:39:58.813Z,115
2016-10-28T14:40:59.094Z,140
2016-10-28T14:41:58.557Z,140
2016-10-28T14:42:58.154Z,155
2016-10-28T14:43:58.351Z,145
2016-10-28T14:44:58.644Z,120
2016-10-28T14:45:58.531Z,120
2016-10-28T14:46:57.807Z,130
2016-10-28T14:47:58.323Z,135
2016-10-28T14:48:58.755Z,130
2016-10-28T14:49:57.810Z,130
2016-10-28T14:51:00.131Z,130
2016-10-28T14:52:00.329Z,130
2016-10-28T14:52:59.972Z,130
2016-10-28T14:54:00.523Z,110
2016-10-28T14:55:00.989Z,95
2016-10-28T14:56:01.716Z,95
2016-10-28T14:57:01.942Z,100
2016-10-28T14:58:00.125Z,95
2016-10-28T14:58:58.724Z,85
2016-10-28T14:59:59.593Z,80
2016-10-28T15:00:58.855Z,75
2016-10-28T15:01:59.889Z,70
2016-10-28T15:02:58.470Z,65
2016-10-28T15:03:58.732Z,60
2016-10-28T15:04:58.771Z,55
2016-10-28T15:05:59.422Z,60
2016-10-28T15:06:58.874Z,50
2016-10-28T15:07:59.488Z,40
2016-10-28T15:08:58.298Z,40
2016-10-28T15:09:58.766Z,40
2016-10-28T15:10:59.262Z,35
2016-10-28T15:11:59.056Z,35
2016-10-28T15:12:58.878Z,35
2016-10-28T15:13:58.693Z,35
2016-10-28T15:14:59.705Z,35
2016-10-28T15:15:58.896Z,30
2016-10-28T15:16:58.668Z,30
2016-10-28T15:17:59.182Z,25
2016-10-28T15:18:58.421Z,25
2016-10-28T15:20:00.166Z,25
2016-10-28T15:20:59.406Z,25
2016-10-28T15:21:59.366Z,25
2016-10-28T15:22:59.251Z,20
2016-10-28T15:23:58.589Z,20
2016-10-28T15:24:59.001Z,15
2016-10-28T15:25:58.757Z,15
2016-10-28T15:26:59.886Z,15
2016-10-28T15:27:58.816Z,15
2016-10-28T15:28:59.389Z,15
2016-10-28T15:29:59.301Z,15
2016-10-28T15:30:58.890Z,15
2016-10-28T15:31:59.762Z,15
2016-10-28T15:32:59.319Z,15
2016-10-28T15:33:59.163Z,15
2016-10-28T15:34:58.882Z,15
2016-10-28T15:35:59.516Z,15
2016-10-28T15:36:59.235Z,15
2016-10-28T15:37:58.639Z,15
2016-10-28T15:38:59.631Z,15
2016-10-28T15:39:59.572Z,20
2016-10-28T15:40:59.434Z,20
2016-10-28T15:41:59.084Z,20
2016-10-28T15:42:59.553Z,25
2016-10-28T15:44:00.439Z,25
2016-10-28T15:45:00.119Z,20
2016-10-28T15:46:00.350Z,20
2016-10-28T15:48:00.427Z,20
2016-10-28T15:48:59.479Z,20
2016-10-28T15:50:00.184Z,20
2016-10-28T15:50:59.887Z,20
2016-10-28T15:52:00.144Z,20
2016-10-28T15:52:59.126Z,20
2016-10-28T15:53:59.629Z,20
2016-10-28T15:54:59.644Z,15
2016-10-28T15:55:59.380Z,15
2016-10-28T15:56:59.344Z,10
2016-10-28T15:57:59.672Z,10
2016-10-28T15:58:59.543Z,10
2016-10-28T15:59:59.660Z,10
2016-10-28T16:01:00.256Z,10
2016-10-28T16:02:00.646Z,10
2016-10-28T16:02:59.562Z,5
2016-10-28T16:04:00.572Z,5
2016-10-28T16:05:00.969Z,5
2016-10-28T16:05:59.555Z,5
2016-10-28T16:07:00.967Z,5
2016-10-28T16:07:59.640Z,0
2016-10-28T16:08:59.466Z,0
2016-10-28T16:10:00.220Z,0
2016-10-28T16:10:59.555Z,0
2016-10-28T16:12:00.111Z,0
2016-10-28T16:13:01.696Z,0
2016-10-28T16:14:00.447Z,0
2016-10-28T16:16:59.663Z,0
2016-10-28T16:18:00.988Z,0
2016-10-28T16:18:59.974Z,0
2016-10-28T16:20:00.035Z,0
2016-10-28T16:21:00.799Z,0
2016-10-28T16:22:00.754Z,0
2016-10-28T16:23:00.604Z,0
2016-10-28T16:24:00.318Z,0
2016-10-28T16:25:00.779Z,0
2016-10-28T16:25:59.697Z,0
2016-10-28T16:27:00.306Z,0
2016-10-28T16:28:00.241Z,0
2016-10-28T16:29:00.380Z,0
2016-10-28T16:30:00.493Z,0
2016-10-28T16:31:01.871Z,0
2016-10-28T16:32:01.026Z,0
2016-10-28T16:33:01.930Z,0
2016-10-28T16:34:02.030Z,0
2016-10-28T16:35:00.474Z,0
2016-10-28T16:36:00.501Z,0
2016-10-28T16:37:00.776Z,0
2016-10-28T16:38:00.134Z,0
2016-10-28T16:39:00.451Z,0
2016-10-28T16:40:00.439Z,0
2016-10-28T16:41:00.746Z,0
2016-10-28T16:42:01.147Z,0
2016-10-28T16:43:01.364Z,0
2016-10-28T16:44:00.282Z,0
2016-10-28T16:45:01.403Z,0
2016-10-28T16:46:00.399Z,0
2016-10-28T16:46:59.904Z,0
2016-10-28T16:48:00.778Z,0
2016-10-28T16:49:00.359Z,0
2016-10-28T16:50:00.830Z,0
2016-10-28T16:51:00.496Z,0
2016-10-28T16:52:00.260Z,0
2016-10-28T16:53:01.890Z,0
2016-10-28T16:54:00.878Z,0
2016-10-28T16:55:00.490Z,0
2016-10-28T16:56:01.033Z,0
2016-10-28T16:57:00.878Z,0
2016-10-28T16:58:00.749Z,0
2016-10-28T16:59:00.724Z,0
2016-10-28T17:00:00.975Z,0
2016-10-28T17:01:00.303Z,0
2016-10-28T17:02:00.791Z,0
2016-10-28T17:03:02.937Z,0
2016-10-28T17:04:00.677Z,0
2016-10-28T17:05:01.094Z,0
2016-10-28T17:06:01.679Z,0
2016-10-28T17:07:00.908Z,0
2016-10-28T17:08:00.706Z,0
2016-10-28T17:09:00.879Z,0
2016-10-28T17:10:01.854Z,0
2016-10-28T17:11:01.183Z,0
2016-10-28T17:12:02.322Z,0
2016-10-28T17:13:01.054Z,0
2016-10-28T17:14:00.877Z,0
2016-10-28T17:15:01.577Z,0
2016-10-28T17:16:02.731Z,0
2016-10-28T17:17:01.186Z,0
2016-10-28T17:18:02.040Z,0
2016-10-28T17:19:01.573Z,0
2016-10-28T17:20:01.011Z,0
2016-10-28T17:21:02.370Z,0
2016-10-28T17:22:01.537Z,0
2016-10-28T17:23:01.689Z,0
2016-10-28T17:24:01.521Z,0
2016-10-28T17:25:01.673Z,0
2016-10-28T17:26:02.555Z,0
2016-10-28T17:27:02.326Z,0
2016-10-28T17:28:01.961Z,0
2016-10-28T17:29:01.041Z,0
2016-10-28T17:30:01.378Z,0
2016-10-28T17:31:01.328Z,0
2016-10-28T17:32:01.507Z,0
2016-10-28T17:33:01.697Z,0
2016-10-28T17:34:02.590Z,0
2016-10-28T17:35:02.045Z,0
2016-10-28T17:36:01.825Z,0
2016-10-28T17:37:01.622Z,0
2016-10-28T17:38:01.439Z,0
2016-10-28T17:39:01.852Z,0
2016-10-28T17:40:01.815Z,0
2016-10-28T17:41:02.234Z,0
2016-10-28T17:42:01.899Z,0
2016-10-28T17:43:02.308Z,0
2016-10-28T17:44:01.874Z,0
2016-10-28T17:45:01.926Z,0
2016-10-28T17:46:01.555Z,0
2016-10-28T17:47:02.245Z,0
2016-10-28T17:48:01.503Z,0
2016-10-28T17:49:02.053Z,0
2016-10-28T17:50:02.826Z,0
2016-10-28T17:51:02.495Z,0
2016-10-28T17:52:02.409Z,0
2016-10-28T17:53:02.194Z,0
2016-10-28T17:54:01.971Z,0
2016-10-28T17:55:01.650Z,0
2016-10-28T17:56:01.959Z,0
2016-10-28T17:57:02.294Z,0
2016-10-28T17:58:02.597Z,0
2016-10-28T17:59:01.923Z,0
2016-10-28T18:00:02.073Z,0
2016-10-28T18:01:02.377Z,0
2016-10-28T18:02:01.990Z,0
2016-10-28T18:03:02.135Z,0
2016-10-28T18:04:02.391Z,0
2016-10-28T18:05:02.159Z,0
2016-10-28T18:06:01.437Z,0
2016-10-28T18:07:02.537Z,0
2016-10-28T18:08:02.301Z,0
2016-10-28T18:09:02.408Z,0
2016-10-28T18:10:03.327Z,0
2016-10-28T18:11:02.005Z,0
2016-10-28T18:12:02.440Z,0
2016-10-28T18:13:01.950Z,0
2016-10-28T18:14:03.270Z,0
2016-10-28T18:15:02.074Z,0
2016-10-28T18:16:02.709Z,0
2016-10-28T18:17:02.027Z,0
2016-10-28T18:18:02.990Z,0
2016-10-28T18:19:02.407Z,0
2016-10-28T18:20:02.482Z,0
2016-10-28T18:21:01.984Z,0
2016-10-28T18:22:02.121Z,0
2016-10-28T18:23:02.710Z,0
2016-10-28T18:24:02.903Z,0
2016-10-28T18:25:02.826Z,0
2016-10-28T18:26:02.122Z,0
2016-10-28T18:27:03.307Z,0
2016-10-28T18:28:02.662Z,0
2016-10-28T18:29:02.868Z,0
2016-10-28T18:30:03.180Z,0
2016-10-28T18:31:03.829Z,0
2016-10-28T18:32:02.074Z,0
2016-10-28T18:33:02.643Z,0
2016-10-28T18:34:02.578Z,0
2016-10-28T18:35:03.391Z,0
2016-10-28T18:36:02.957Z,0
2016-10-28T18:37:02.532Z,0
2016-10-28T18:38:03.754Z,0
2016-10-28T18:39:03.057Z,0
2016-10-28T18:40:02.716Z,0
2016-10-28T18:41:03.457Z,0
2016-10-28T18:42:02.488Z,0
2016-10-28T18:43:02.830Z,0
2016-10-28T18:44:03.455Z,0
2016-10-28T18:45:04.263Z,0
2016-10-28T18:46:02.715Z,0
2016-10-28T18:47:02.218Z,0
2016-10-28T18:48:03.442Z,0
2016-10-28T18:49:03.957Z,0
2016-10-28T18:50:02.610Z,0
2016-10-28T18:51:03.474Z,0
2016-10-28T18:52:03.551Z,0
2016-10-28T18:53:03.476Z,0
2016-10-28T18:54:02.902Z,0
2016-10-28T18:55:02.618Z,0
2016-10-28T18:56:02.664Z,0
2016-10-28T18:57:03.383Z,0
2016-10-28T18:58:03.192Z,0
2016-10-28T18:59:03.256Z,0
2016-10-28T19:00:03.425Z,0
2016-10-28T19:01:03.090Z,0
2016-10-28T19:02:04.506Z,0
2016-10-28T19:03:03.650Z,0
2016-10-28T19:04:03.562Z,0
2016-10-28T19:05:03.053Z,0
2016-10-28T19:06:04.527Z,0
2016-10-28T19:07:03.368Z,0
2016-10-28T19:08:04.288Z,0
2016-10-28T19:09:03.388Z,0
2016-10-28T19:10:02.261Z,0
2016-10-28T19:11:03.041Z,0
2016-10-28T19:12:03.382Z,0
2016-10-28T19:13:04.399Z,0
2016-10-28T19:14:03.534Z,0
2016-10-28T19:15:03.594Z,0
2016-10-28T19:16:03.081Z,0
2016-10-28T19:17:04.511Z,0
2016-10-28T19:18:03.585Z,0
2016-10-28T19:19:04.322Z,0
2016-10-28T19:20:03.730Z,0
2016-10-28T19:21:03.843Z,0
2016-10-28T19:22:03.905Z,0
2016-10-28T19:23:04.242Z,0
2016-10-28T19:24:03.284Z,0
2016-10-28T19:25:03.458Z,0
2016-10-28T19:26:04.109Z,0
2016-10-28T19:27:03.835Z,0
2016-10-28T19:28:04.780Z,0
2016-10-28T19:29:04.314Z,0
2016-10-28T19:30:04.422Z,0
2016-10-28T19:31:04.989Z,0
2016-10-28T19:32:03.529Z,0
2016-10-28T19:33:04.395Z,0
2016-10-28T19:34:03.863Z,0
2016-10-28T19:35:04.390Z,0
2016-10-28T19:36:03.719Z,0
2016-10-28T19:37:04.380Z,0
2016-10-28T19:38:04.752Z,0
2016-10-28T19:39:04.522Z,0
2016-10-28T19:40:04.545Z,0
2016-10-28T19:41:03.650Z,0
2016-10-28T19:42:03.717Z,0
2016-10-28T19:43:03.914Z,0
2016-10-28T19:44:04.406Z,0
2016-10-28T19:45:04.649Z,0
2016-10-28T19:46:04.125Z,0
2016-10-28T19:47:05.719Z,0
2016-10-28T19:48:03.420Z,0
2016-10-28T19:49:03.121Z,0
2016-10-28T19:50:05.038Z,0
2016-10-28T19:51:05.785Z,0
2016-10-28T19:52:04.342Z,0
2016-10-28T19:53:04.460Z,0
2016-10-28T19:54:04.163Z,0
2016-10-28T19:55:05.068Z,0
2016-10-28T19:56:05.369Z,0
2016-10-28T19:57:04.906Z,0
2016-10-28T19:58:05.491Z,0
2016-10-28T19:59:04.183Z,0
2016-10-28T20:00:05.128Z,0
2016-10-28T20:01:05.744Z,0
2016-10-28T20:02:03.894Z,0
2016-10-28T20:03:05.094Z,0
2016-10-28T20:04:04.597Z,0
2016-10-28T20:05:04.897Z,0
2016-10-28T20:06:04.872Z,0
2016-10-28T20:07:04.552Z,0
2016-10-28T20:08:05.141Z,0
2016-10-28T20:09:05.901Z,0
2016-10-28T20:10:05.407Z,0
2016-10-28T20:11:05.494Z,0
2016-10-28T20:12:04.526Z,0
2016-10-28T20:13:05.229Z,0
2016-10-28T20:14:05.324Z,0
2016-10-28T20:15:04.670Z,0
2016-10-28T20:16:05.540Z,0
2016-10-28T20:17:04.797Z,0
2016-10-28T20:18:04.466Z,0
2016-10-28T20:19:04.581Z,0
2016-10-28T20:20:05.343Z,0
2016-10-28T20:21:04.669Z,0
2016-10-28T20:22:05.817Z,0
2016-10-28T20:23:04.727Z,0
2016-10-28T20:24:05.448Z,0
2016-10-28T20:25:04.455Z,0
2016-10-28T20:26:06.197Z,0
2016-10-28T20:27:06.161Z,0
2016-10-28T20:28:05.170Z,0
2016-10-28T20:29:05.270Z,0
2016-10-28T20:30:04.740Z,0
2016-10-28T20:31:05.596Z,0
2016-10-28T20:32:04.881Z,0
2016-10-28T20:33:06.080Z,0
2016-10-28T20:34:05.691Z,0
2016-10-28T20:35:04.856Z,0
2016-10-28T20:36:05.551Z,0
2016-10-28T20:37:04.664Z,0
2016-10-28T20:38:05.285Z,0
2016-10-28T20:39:05.162Z,0
2016-10-28T20:40:04.639Z,0
2016-10-28T20:41:04.244Z,0
2016-10-28T20:42:05.882Z,0
2016-10-28T20:43:06.133Z,0
2016-10-28T20:44:05.014Z,0
2016-10-28T20:45:05.691Z,0
2016-10-28T20:46:05.213Z,0
2016-10-28T20:47:05.384Z,0
2016-10-28T20:48:05.207Z,0
2016-10-28T20:49:05.976Z,0
2016-10-28T20:50:05.135Z,0
2016-10-28T20:51:05.193Z,0
2016-10-28T20:52:05.826Z,0
2016-10-28T20:53:05.094Z,0
2016-10-28T20:54:05.701Z,0
2016-10-28T20:55:05.966Z,0
2016-10-28T20:56:06.440Z,0
2016-10-28T20:57:05.680Z,0
2016-10-28T20:58:05.937Z,0
2016-10-28T20:59:06.425Z,0
2016-10-28T21:00:04.902Z,0
2016-10-28T21:01:05.926Z,0
2016-10-28T21:02:06.125Z,0
2016-10-28T21:03:07.307Z,0
2016-10-28T21:04:05.095Z,0
2016-10-28T21:05:05.129Z,0
2016-10-28T21:06:06.325Z,0
2016-10-28T21:07:05.626Z,0
2016-10-28T21:08:05.996Z,0
2016-10-28T21:09:05.493Z,0
2016-10-28T21:10:07.234Z,0
2016-10-28T21:11:05.481Z,0
2016-10-28T21:12:05.913Z,0
2016-10-28T21:13:05.750Z,0
2016-10-28T21:14:05.864Z,0
2016-10-28T21:15:05.866Z,0
2016-10-28T21:16:05.610Z,0
2016-10-28T21:17:05.911Z,0
2016-10-28T21:18:06.516Z,0
2016-10-28T21:19:05.813Z,0
2016-10-28T21:20:05.561Z,0
2016-10-28T21:21:05.383Z,0
2016-10-28T21:22:06.185Z,0
2016-10-28T21:23:07.626Z,0
2016-10-28T21:24:05.871Z,0
2016-10-28T21:25:07.171Z,0
2016-10-28T21:26:07.026Z,0
2016-10-28T21:27:07.047Z,0
2016-10-28T21:28:05.777Z,0
2016-10-28T21:29:06.594Z,0
2016-10-28T21:30:06.676Z,0
2016-10-28T21:31:06.140Z,0
2016-10-28T21:32:06.735Z,0
2016-10-28T21:33:05.720Z,0
2016-10-28T21:34:05.664Z,0
2016-10-28T21:35:06.698Z,0
2016-10-28T21:36:06.213Z,0
2016-10-28T21:37:06.073Z,0
2016-10-28T21:38:05.950Z,0
2016-10-28T21:39:05.874Z,0
2016-10-28T21:40:06.226Z,0
2016-10-28T21:41:07.738Z,0
2016-10-28T21:42:07.532Z,0
2016-10-28T21:43:07.030Z,0
2016-10-28T21:44:07.033Z,0
2016-10-28T21:45:06.814Z,0
2016-10-28T21:46:06.201Z,0
2016-10-28T21:47:06.567Z,0
2016-10-28T21:48:05.567Z,0
2016-10-28T21:49:07.083Z,0
2016-10-28T21:50:05.641Z,0
2016-10-28T21:51:06.088Z,0
2016-10-28T21:52:06.568Z,0
2016-10-28T21:53:06.922Z,0
2016-10-28T21:54:06.233Z,0
2016-10-28T21:55:07.440Z,0
2016-10-28T21:56:07.761Z,0
2016-10-28T21:57:07.486Z,0
2016-10-28T21:58:06.412Z,0
2016-10-28T21:59:06.786Z,0
2016-10-28T22:00:06.377Z,0
2016-10-28T22:01:07.430Z,0
2016-10-28T22:02:06.893Z,0
2016-10-28T22:03:08.021Z,0
2016-10-28T22:04:08.258Z,0
2016-10-28T22:05:06.503Z,0
2016-10-28T22:06:06.586Z,0
2016-10-28T22:07:07.164Z,0
2016-10-28T22:08:06.962Z,0
2016-10-28T22:09:07.081Z,0
2016-10-28T22:10:08.819Z,0
2016-10-28T22:11:06.068Z,0
2016-10-28T22:12:07.313Z,0
2016-10-28T22:13:08.150Z,0
2016-10-28T22:14:07.219Z,0
2016-10-28T22:15:06.816Z,0
2016-10-28T22:16:09.656Z,0
2016-10-28T22:17:07.757Z,0
2016-10-28T22:18:06.815Z,0
2016-10-28T22:19:07.348Z,0
2016-10-28T22:20:07.589Z,0
2016-10-28T22:21:08.638Z,0
2016-10-28T22:22:07.777Z,0
2016-10-28T22:23:08.199Z,0
2016-10-28T22:24:08.129Z,0
2016-10-28T22:25:07.126Z,0
2016-10-28T22:26:07.508Z,0
2016-10-28T22:27:08.130Z,0
2016-10-28T22:28:07.838Z,0
2016-10-28T22:29:07.371Z,0
2016-10-28T22:30:07.309Z,0
2016-10-28T22:31:07.537Z,0
2016-10-28T22:32:08.159Z,0
2016-10-28T22:33:07.990Z,0
2016-10-28T22:34:07.553Z,0
2016-10-28T22:35:07.022Z,0
2016-10-28T22:36:07.887Z,0
2016-10-28T22:37:08.609Z,0
2016-10-28T22:38:07.887Z,0
2016-10-28T22:39:07.831Z,0
2016-10-28T22:40:07.640Z,0
2016-10-28T22:41:07.682Z,0
2016-10-28T22:42:07.016Z,0
2016-10-28T22:43:08.141Z,0
2016-10-28T22:44:08.489Z,0
2016-10-28T22:45:07.988Z,0
2016-10-28T22:46:08.038Z,0
2016-10-28T22:47:08.320Z,0
2016-10-28T22:48:07.559Z,0
2016-10-28T22:49:08.662Z,0
2016-10-28T22:50:07.508Z,0
2016-10-28T22:51:08.314Z,0
2016-10-28T22:52:07.976Z,0
2016-10-28T22:53:09.074Z,0
2016-10-28T22:54:07.618Z,0
2016-10-28T22:55:09.389Z,0
2016-10-28T22:56:07.416Z,0
2016-10-28T22:57:07.898Z,0
2016-10-28T22:58:07.950Z,0
2016-10-28T22:59:07.826Z,0
2016-10-28T23:00:07.954Z,0
2016-10-28T23:01:08.389Z,0
2016-10-28T23:02:07.723Z,0
2016-10-28T23:03:07.467Z,0
2016-10-28T23:04:08.090Z,0
2016-10-28T23:05:07.149Z,0
2016-10-28T23:06:07.883Z,0
2016-10-28T23:07:07.763Z,0
2016-10-28T23:08:08.719Z,0
2016-10-28T23:09:08.082Z,0
2016-10-28T23:10:07.839Z,0
2016-10-28T23:11:08.587Z,0
2016-10-28T23:12:09.025Z,0
2016-10-28T23:13:09.088Z,0
2016-10-28T23:14:08.187Z,0
2016-10-28T23:15:08.669Z,0
2016-10-28T23:16:08.729Z,0
2016-10-28T23:17:08.561Z,0
2016-10-28T23:18:08.806Z,0
2016-10-28T23:19:08.606Z,0
2016-10-28T23:20:08.522Z,0
2016-10-28T23:21:08.838Z,0
2016-10-28T23:22:08.706Z,0
2016-10-28T23:23:08.356Z,0
2016-10-28T23:24:08.462Z,0
2016-10-28T23:25:08.121Z,0
2016-10-28T23:26:09.533Z,0
2016-10-28T23:27:09.010Z,0
2016-10-28T23:28:09.923Z,0
2016-10-28T23:29:08.524Z,0
2016-10-28T23:30:09.623Z,0
2016-10-28T23:31:08.328Z,0
2016-10-28T23:32:09.955Z,0
2016-10-28T23:33:07.850Z,0
2016-10-28T23:34:08.251Z,0
2016-10-28T23:35:08.149Z,0
2016-10-28T23:36:08.590Z,0
2016-10-28T23:37:10.067Z,0
2016-10-28T23:38:08.504Z,0
2016-10-28T23:39:08.475Z,0
2016-10-28T23:40:09.184Z,0
2016-10-28T23:41:08.694Z,0
2016-10-28T23:42:08.624Z,0
2016-10-28T23:43:09.656Z,0
2016-10-28T23:44:09.427Z,0
2016-10-28T23:45:08.959Z,0
2016-10-28T23:46:09.089Z,0
2016-10-28T23:47:09.418Z,0
2016-10-28T23:48:08.086Z,0
2016-10-28T23:49:10.289Z,0
2016-10-28T23:50:09.353Z,0
2016-10-28T23:51:08.908Z,0
2016-10-28T23:52:09.405Z,0
2016-10-28T23:53:09.791Z,0
2016-10-28T23:54:08.668Z,0
2016-10-28T23:55:08.649Z,0
2016-10-28T23:56:09.391Z,0
2016-10-28T23:57:10.321Z,0
2016-10-28T23:58:09.617Z,0
2016-10-28T23:59:08.785Z,0
